sensor_id;sensor_type;location;lat;lon;timestamp;P1;durP1;ratioP1;P2;durP2;ratioP2
74080;SDS011;62438;52.228;6.864;2022-10-16T00:01:46;6.43;;;2.35;;
74080;SDS011;62438;52.228;6.864;2022-10-16T00:03:47;8.55;;;2.90;;
74080;SDS011;62438;52.228;6.864;2022-10-16T00:05:48;9.55;;;2.25;;
74080;SDS011;62438;52.228;6.864;2022-10-16T00:07:48;9.10;;;2.28;;
74080;SDS011;62438;52.228;6.864;2022-10-16T00:09:48;8.93;;;2.40;;
74080;SDS011;62438;52.228;6.864;2022-10-16T00:11:49;8.80;;;2.30;;
74080;SDS011;62438;52.228;6.864;2022-10-16T00:13:51;7.75;;;2.13;;
74080;SDS011;62438;52.228;6.864;2022-10-16T00:15:58;8.55;;;2.28;;
74080;SDS011;62438;52.228;6.864;2022-10-16T00:17:59;8.43;;;2.75;;
74080;SDS011;62438;52.228;6.864;2022-10-16T00:19:59;11.20;;;2.30;;
74080;SDS011;62438;52.228;6.864;2022-10-16T00:22:00;7.40;;;2.05;;
74080;SDS011;62438;52.228;6.864;2022-10-16T00:24:04;11.65;;;2.88;;
74080;SDS011;62438;52.228;6.864;2022-10-16T00:26:09;8.90;;;2.53;;
74080;SDS011;62438;52.228;6.864;2022-10-16T00:28:12;6.20;;;1.80;;
74080;SDS011;62438;52.228;6.864;2022-10-16T00:30:12;6.88;;;2.17;;
74080;SDS011;62438;52.228;6.864;2022-10-16T00:32:13;6.40;;;1.80;;
74080;SDS011;62438;52.228;6.864;2022-10-16T00:34:13;12.02;;;1.92;;
74080;SDS011;62438;52.228;6.864;2022-10-16T00:36:15;7.03;;;1.83;;
74080;SDS011;62438;52.228;6.864;2022-10-16T00:38:17;10.90;;;2.60;;
74080;SDS011;62438;52.228;6.864;2022-10-16T00:40:17;7.22;;;1.92;;
74080;SDS011;62438;52.228;6.864;2022-10-16T00:42:18;6.90;;;1.90;;
74080;SDS011;62438;52.228;6.864;2022-10-16T00:46:44;8.73;;;2.20;;
74080;SDS011;62438;52.228;6.864;2022-10-16T00:50:59;10.73;;;2.72;;
74080;SDS011;62438;52.228;6.864;2022-10-16T00:53:00;7.68;;;2.15;;
74080;SDS011;62438;52.228;6.864;2022-10-16T00:55:02;8.73;;;2.97;;
74080;SDS011;62438;52.228;6.864;2022-10-16T00:57:05;7.40;;;2.80;;
74080;SDS011;62438;52.228;6.864;2022-10-16T00:59:07;7.28;;;2.47;;
74080;SDS011;62438;52.228;6.864;2022-10-16T01:01:22;8.55;;;2.50;;
74080;SDS011;62438;52.228;6.864;2022-10-16T01:03:29;6.40;;;2.10;;
74080;SDS011;62438;52.228;6.864;2022-10-16T01:05:38;6.97;;;2.50;;
74080;SDS011;62438;52.228;6.864;2022-10-16T01:10:16;8.98;;;2.30;;
74080;SDS011;62438;52.228;6.864;2022-10-16T01:17:00;9.63;;;2.45;;
74080;SDS011;62438;52.228;6.864;2022-10-16T01:21:43;9.23;;;2.50;;
74080;SDS011;62438;52.228;6.864;2022-10-16T01:28:31;10.55;;;2.83;;
74080;SDS011;62438;52.228;6.864;2022-10-16T01:30:39;8.80;;;2.63;;
74080;SDS011;62438;52.228;6.864;2022-10-16T01:32:55;10.20;;;3.00;;
74080;SDS011;62438;52.228;6.864;2022-10-16T01:35:11;9.07;;;2.83;;
74080;SDS011;62438;52.228;6.864;2022-10-16T01:37:18;11.60;;;3.05;;
74080;SDS011;62438;52.228;6.864;2022-10-16T01:39:29;9.10;;;2.78;;
74080;SDS011;62438;52.228;6.864;2022-10-16T01:41:38;8.30;;;2.58;;
74080;SDS011;62438;52.228;6.864;2022-10-16T01:43:48;11.10;;;2.80;;
74080;SDS011;62438;52.228;6.864;2022-10-16T01:45:53;9.45;;;2.67;;
74080;SDS011;62438;52.228;6.864;2022-10-16T01:47:54;9.82;;;3.15;;
74080;SDS011;62438;52.228;6.864;2022-10-16T01:49:55;13.00;;;3.10;;
74080;SDS011;62438;52.228;6.864;2022-10-16T01:51:59;11.40;;;3.40;;
74080;SDS011;62438;52.228;6.864;2022-10-16T01:54:02;7.72;;;3.38;;
74080;SDS011;62438;52.228;6.864;2022-10-16T01:56:06;8.57;;;3.00;;
74080;SDS011;62438;52.228;6.864;2022-10-16T01:58:10;11.30;;;3.30;;
74080;SDS011;62438;52.228;6.864;2022-10-16T02:00:13;11.48;;;3.35;;
74080;SDS011;62438;52.228;6.864;2022-10-16T02:02:17;9.35;;;3.53;;
74080;SDS011;62438;52.228;6.864;2022-10-16T02:06:22;13.35;;;4.68;;
74080;SDS011;62438;52.228;6.864;2022-10-16T02:08:24;9.65;;;3.40;;
74080;SDS011;62438;52.228;6.864;2022-10-16T02:10:28;10.60;;;3.90;;
74080;SDS011;62438;52.228;6.864;2022-10-16T02:12:31;7.78;;;3.90;;
74080;SDS011;62438;52.228;6.864;2022-10-16T02:14:34;12.07;;;3.63;;
74080;SDS011;62438;52.228;6.864;2022-10-16T02:16:38;9.52;;;4.20;;
74080;SDS011;62438;52.228;6.864;2022-10-16T02:18:41;11.63;;;4.40;;
74080;SDS011;62438;52.228;6.864;2022-10-16T02:20:48;14.05;;;4.13;;
74080;SDS011;62438;52.228;6.864;2022-10-16T02:22:53;9.88;;;3.75;;
74080;SDS011;62438;52.228;6.864;2022-10-16T02:29:03;9.23;;;3.70;;
74080;SDS011;62438;52.228;6.864;2022-10-16T02:31:08;11.93;;;4.22;;
74080;SDS011;62438;52.228;6.864;2022-10-16T02:33:14;8.60;;;3.63;;
74080;SDS011;62438;52.228;6.864;2022-10-16T02:35:18;14.40;;;4.60;;
74080;SDS011;62438;52.228;6.864;2022-10-16T02:37:21;11.20;;;3.83;;
74080;SDS011;62438;52.228;6.864;2022-10-16T02:39:21;9.07;;;3.95;;
74080;SDS011;62438;52.228;6.864;2022-10-16T02:41:22;12.52;;;4.10;;
74080;SDS011;62438;52.228;6.864;2022-10-16T02:43:24;13.73;;;3.50;;
74080;SDS011;62438;52.228;6.864;2022-10-16T02:45:25;9.27;;;4.18;;
74080;SDS011;62438;52.228;6.864;2022-10-16T02:47:25;9.50;;;3.28;;
74080;SDS011;62438;52.228;6.864;2022-10-16T02:49:26;9.35;;;3.60;;
74080;SDS011;62438;52.228;6.864;2022-10-16T02:51:26;8.88;;;3.58;;
74080;SDS011;62438;52.228;6.864;2022-10-16T02:53:26;9.13;;;3.70;;
74080;SDS011;62438;52.228;6.864;2022-10-16T02:55:27;8.65;;;3.20;;
74080;SDS011;62438;52.228;6.864;2022-10-16T02:57:27;11.85;;;3.35;;
74080;SDS011;62438;52.228;6.864;2022-10-16T02:59:28;9.45;;;3.33;;
74080;SDS011;62438;52.228;6.864;2022-10-16T03:01:28;11.23;;;3.13;;
74080;SDS011;62438;52.228;6.864;2022-10-16T03:03:29;10.30;;;3.20;;
74080;SDS011;62438;52.228;6.864;2022-10-16T03:05:29;8.10;;;3.00;;
74080;SDS011;62438;52.228;6.864;2022-10-16T03:07:29;6.90;;;2.65;;
74080;SDS011;62438;52.228;6.864;2022-10-16T03:09:30;7.18;;;2.80;;
74080;SDS011;62438;52.228;6.864;2022-10-16T03:11:30;9.40;;;2.97;;
74080;SDS011;62438;52.228;6.864;2022-10-16T03:13:31;8.05;;;2.92;;
74080;SDS011;62438;52.228;6.864;2022-10-16T03:15:31;7.40;;;2.70;;
74080;SDS011;62438;52.228;6.864;2022-10-16T03:17:31;7.45;;;2.90;;
74080;SDS011;62438;52.228;6.864;2022-10-16T03:19:32;6.90;;;2.67;;
74080;SDS011;62438;52.228;6.864;2022-10-16T03:21:32;7.47;;;2.85;;
74080;SDS011;62438;52.228;6.864;2022-10-16T03:23:33;9.43;;;2.78;;
74080;SDS011;62438;52.228;6.864;2022-10-16T03:25:33;6.82;;;2.33;;
74080;SDS011;62438;52.228;6.864;2022-10-16T03:27:34;8.00;;;2.97;;
74080;SDS011;62438;52.228;6.864;2022-10-16T03:29:34;9.23;;;2.58;;
74080;SDS011;62438;52.228;6.864;2022-10-16T03:31:34;6.57;;;2.40;;
74080;SDS011;62438;52.228;6.864;2022-10-16T03:33:35;6.55;;;2.47;;
74080;SDS011;62438;52.228;6.864;2022-10-16T03:35:35;8.95;;;2.50;;
74080;SDS011;62438;52.228;6.864;2022-10-16T03:37:36;9.52;;;2.58;;
74080;SDS011;62438;52.228;6.864;2022-10-16T03:39:36;8.73;;;2.72;;
74080;SDS011;62438;52.228;6.864;2022-10-16T03:41:37;7.68;;;2.42;;
74080;SDS011;62438;52.228;6.864;2022-10-16T03:43:37;6.40;;;2.20;;
74080;SDS011;62438;52.228;6.864;2022-10-16T03:45:37;7.25;;;2.35;;
74080;SDS011;62438;52.228;6.864;2022-10-16T03:47:38;8.02;;;2.50;;
74080;SDS011;62438;52.228;6.864;2022-10-16T03:49:38;6.97;;;2.30;;
74080;SDS011;62438;52.228;6.864;2022-10-16T03:51:38;8.13;;;2.80;;
74080;SDS011;62438;52.228;6.864;2022-10-16T03:53:39;7.20;;;2.58;;
74080;SDS011;62438;52.228;6.864;2022-10-16T03:55:41;6.40;;;2.25;;
74080;SDS011;62438;52.228;6.864;2022-10-16T03:57:42;7.38;;;2.45;;
74080;SDS011;62438;52.228;6.864;2022-10-16T03:59:42;6.60;;;2.15;;
74080;SDS011;62438;52.228;6.864;2022-10-16T04:01:43;6.80;;;2.17;;
74080;SDS011;62438;52.228;6.864;2022-10-16T04:03:43;9.18;;;2.20;;
74080;SDS011;62438;52.228;6.864;2022-10-16T04:05:44;8.32;;;2.22;;
74080;SDS011;62438;52.228;6.864;2022-10-16T04:07:44;9.00;;;2.72;;
74080;SDS011;62438;52.228;6.864;2022-10-16T04:09:45;7.25;;;2.35;;
74080;SDS011;62438;52.228;6.864;2022-10-16T04:11:45;6.28;;;2.30;;
74080;SDS011;62438;52.228;6.864;2022-10-16T04:13:45;8.18;;;2.63;;
74080;SDS011;62438;52.228;6.864;2022-10-16T04:15:46;7.55;;;2.60;;
74080;SDS011;62438;52.228;6.864;2022-10-16T04:17:46;5.53;;;1.95;;
74080;SDS011;62438;52.228;6.864;2022-10-16T04:19:47;6.13;;;2.25;;
74080;SDS011;62438;52.228;6.864;2022-10-16T04:21:47;9.52;;;2.20;;
74080;SDS011;62438;52.228;6.864;2022-10-16T04:23:48;6.30;;;2.47;;
74080;SDS011;62438;52.228;6.864;2022-10-16T04:25:49;7.30;;;2.40;;
74080;SDS011;62438;52.228;6.864;2022-10-16T04:27:49;7.90;;;2.17;;
74080;SDS011;62438;52.228;6.864;2022-10-16T04:29:50;7.35;;;2.40;;
74080;SDS011;62438;52.228;6.864;2022-10-16T04:31:50;7.38;;;2.33;;
74080;SDS011;62438;52.228;6.864;2022-10-16T04:33:50;7.95;;;2.63;;
74080;SDS011;62438;52.228;6.864;2022-10-16T04:35:57;5.72;;;2.10;;
74080;SDS011;62438;52.228;6.864;2022-10-16T04:37:59;6.80;;;2.05;;
74080;SDS011;62438;52.228;6.864;2022-10-16T04:39:59;5.60;;;2.10;;
74080;SDS011;62438;52.228;6.864;2022-10-16T04:41:59;6.15;;;2.20;;
74080;SDS011;62438;52.228;6.864;2022-10-16T04:44:00;7.88;;;2.33;;
74080;SDS011;62438;52.228;6.864;2022-10-16T04:46:00;7.20;;;2.25;;
74080;SDS011;62438;52.228;6.864;2022-10-16T04:48:01;10.98;;;2.45;;
74080;SDS011;62438;52.228;6.864;2022-10-16T04:50:02;7.13;;;2.47;;
74080;SDS011;62438;52.228;6.864;2022-10-16T04:52:02;8.05;;;2.35;;
74080;SDS011;62438;52.228;6.864;2022-10-16T04:54:03;6.90;;;1.98;;
74080;SDS011;62438;52.228;6.864;2022-10-16T04:56:03;8.43;;;2.75;;
74080;SDS011;62438;52.228;6.864;2022-10-16T04:58:04;8.38;;;2.28;;
74080;SDS011;62438;52.228;6.864;2022-10-16T05:00:05;8.27;;;2.47;;
74080;SDS011;62438;52.228;6.864;2022-10-16T05:02:06;6.50;;;2.40;;
74080;SDS011;62438;52.228;6.864;2022-10-16T05:04:06;9.40;;;2.20;;
74080;SDS011;62438;52.228;6.864;2022-10-16T05:06:07;7.10;;;2.58;;
74080;SDS011;62438;52.228;6.864;2022-10-16T05:08:07;8.90;;;2.17;;
74080;SDS011;62438;52.228;6.864;2022-10-16T05:10:08;6.15;;;2.33;;
74080;SDS011;62438;52.228;6.864;2022-10-16T05:12:08;6.70;;;2.38;;
74080;SDS011;62438;52.228;6.864;2022-10-16T05:14:08;6.85;;;2.45;;
74080;SDS011;62438;52.228;6.864;2022-10-16T05:16:09;6.05;;;2.15;;
74080;SDS011;62438;52.228;6.864;2022-10-16T05:18:09;6.32;;;2.30;;
74080;SDS011;62438;52.228;6.864;2022-10-16T05:20:10;7.95;;;2.30;;
74080;SDS011;62438;52.228;6.864;2022-10-16T05:22:11;9.18;;;2.50;;
74080;SDS011;62438;52.228;6.864;2022-10-16T05:24:11;7.75;;;2.15;;
74080;SDS011;62438;52.228;6.864;2022-10-16T05:26:12;9.38;;;2.38;;
74080;SDS011;62438;52.228;6.864;2022-10-16T05:28:12;7.65;;;2.40;;
74080;SDS011;62438;52.228;6.864;2022-10-16T05:30:13;7.18;;;2.17;;
74080;SDS011;62438;52.228;6.864;2022-10-16T05:32:14;8.75;;;2.47;;
74080;SDS011;62438;52.228;6.864;2022-10-16T05:34:15;11.02;;;2.42;;
74080;SDS011;62438;52.228;6.864;2022-10-16T05:36:15;5.85;;;2.20;;
74080;SDS011;62438;52.228;6.864;2022-10-16T05:40:18;7.50;;;2.28;;
74080;SDS011;62438;52.228;6.864;2022-10-16T05:42:19;7.05;;;2.40;;
74080;SDS011;62438;52.228;6.864;2022-10-16T05:44:19;7.72;;;2.35;;
74080;SDS011;62438;52.228;6.864;2022-10-16T05:46:20;7.30;;;2.50;;
74080;SDS011;62438;52.228;6.864;2022-10-16T05:48:20;9.55;;;2.60;;
74080;SDS011;62438;52.228;6.864;2022-10-16T05:50:21;9.35;;;2.22;;
74080;SDS011;62438;52.228;6.864;2022-10-16T05:52:21;7.45;;;2.17;;
74080;SDS011;62438;52.228;6.864;2022-10-16T05:54:22;11.25;;;2.95;;
74080;SDS011;62438;52.228;6.864;2022-10-16T05:56:22;7.55;;;2.50;;
74080;SDS011;62438;52.228;6.864;2022-10-16T05:58:22;7.18;;;2.47;;
74080;SDS011;62438;52.228;6.864;2022-10-16T06:00:23;8.80;;;2.53;;
74080;SDS011;62438;52.228;6.864;2022-10-16T06:02:24;6.35;;;2.30;;
74080;SDS011;62438;52.228;6.864;2022-10-16T06:04:24;7.65;;;2.65;;
74080;SDS011;62438;52.228;6.864;2022-10-16T06:06:25;7.97;;;2.50;;
74080;SDS011;62438;52.228;6.864;2022-10-16T06:08:26;9.02;;;2.58;;
74080;SDS011;62438;52.228;6.864;2022-10-16T06:10:27;7.03;;;2.30;;
74080;SDS011;62438;52.228;6.864;2022-10-16T06:12:28;7.65;;;2.67;;
74080;SDS011;62438;52.228;6.864;2022-10-16T06:14:29;7.63;;;2.20;;
74080;SDS011;62438;52.228;6.864;2022-10-16T06:16:29;7.38;;;2.53;;
74080;SDS011;62438;52.228;6.864;2022-10-16T06:18:30;6.55;;;2.60;;
74080;SDS011;62438;52.228;6.864;2022-10-16T06:20:31;7.85;;;2.67;;
74080;SDS011;62438;52.228;6.864;2022-10-16T06:22:31;8.52;;;2.45;;
74080;SDS011;62438;52.228;6.864;2022-10-16T06:24:31;6.90;;;2.42;;
74080;SDS011;62438;52.228;6.864;2022-10-16T06:26:32;6.60;;;3.10;;
74080;SDS011;62438;52.228;6.864;2022-10-16T06:28:32;7.95;;;2.72;;
74080;SDS011;62438;52.228;6.864;2022-10-16T06:30:33;8.07;;;2.58;;
74080;SDS011;62438;52.228;6.864;2022-10-16T06:32:33;7.57;;;2.85;;
74080;SDS011;62438;52.228;6.864;2022-10-16T06:34:34;7.38;;;2.00;;
74080;SDS011;62438;52.228;6.864;2022-10-16T06:36:34;7.45;;;2.65;;
74080;SDS011;62438;52.228;6.864;2022-10-16T06:38:34;11.43;;;2.60;;
74080;SDS011;62438;52.228;6.864;2022-10-16T06:40:35;7.68;;;2.33;;
74080;SDS011;62438;52.228;6.864;2022-10-16T06:42:36;8.30;;;2.38;;
74080;SDS011;62438;52.228;6.864;2022-10-16T06:44:36;7.40;;;2.63;;
74080;SDS011;62438;52.228;6.864;2022-10-16T06:46:36;6.85;;;2.33;;
74080;SDS011;62438;52.228;6.864;2022-10-16T06:48:37;7.18;;;2.60;;
74080;SDS011;62438;52.228;6.864;2022-10-16T06:50:38;8.23;;;2.67;;
74080;SDS011;62438;52.228;6.864;2022-10-16T06:52:38;6.22;;;2.50;;
74080;SDS011;62438;52.228;6.864;2022-10-16T06:54:38;6.95;;;2.38;;
74080;SDS011;62438;52.228;6.864;2022-10-16T06:56:39;7.68;;;2.50;;
74080;SDS011;62438;52.228;6.864;2022-10-16T06:58:39;7.78;;;2.50;;
74080;SDS011;62438;52.228;6.864;2022-10-16T07:00:40;7.78;;;2.42;;
74080;SDS011;62438;52.228;6.864;2022-10-16T07:02:41;7.63;;;2.45;;
74080;SDS011;62438;52.228;6.864;2022-10-16T07:04:41;8.50;;;2.72;;
74080;SDS011;62438;52.228;6.864;2022-10-16T07:06:42;8.23;;;2.40;;
74080;SDS011;62438;52.228;6.864;2022-10-16T07:08:43;6.82;;;2.50;;
74080;SDS011;62438;52.228;6.864;2022-10-16T07:10:44;6.28;;;2.30;;
74080;SDS011;62438;52.228;6.864;2022-10-16T07:12:45;6.97;;;2.60;;
74080;SDS011;62438;52.228;6.864;2022-10-16T07:14:45;10.20;;;2.45;;
74080;SDS011;62438;52.228;6.864;2022-10-16T07:16:46;10.55;;;2.70;;
74080;SDS011;62438;52.228;6.864;2022-10-16T07:18:47;7.10;;;2.03;;
74080;SDS011;62438;52.228;6.864;2022-10-16T07:20:49;6.07;;;1.92;;
74080;SDS011;62438;52.228;6.864;2022-10-16T07:22:50;7.35;;;2.03;;
74080;SDS011;62438;52.228;6.864;2022-10-16T07:24:51;7.80;;;2.00;;
74080;SDS011;62438;52.228;6.864;2022-10-16T07:26:52;5.35;;;2.05;;
74080;SDS011;62438;52.228;6.864;2022-10-16T07:28:53;7.05;;;1.70;;
74080;SDS011;62438;52.228;6.864;2022-10-16T07:30:53;7.80;;;1.90;;
74080;SDS011;62438;52.228;6.864;2022-10-16T07:32:53;7.13;;;2.13;;
74080;SDS011;62438;52.228;6.864;2022-10-16T07:34:54;9.90;;;1.77;;
74080;SDS011;62438;52.228;6.864;2022-10-16T07:36:55;7.55;;;1.83;;
74080;SDS011;62438;52.228;6.864;2022-10-16T07:38:56;10.43;;;2.00;;
74080;SDS011;62438;52.228;6.864;2022-10-16T07:41:00;6.07;;;2.03;;
74080;SDS011;62438;52.228;6.864;2022-10-16T07:43:02;7.28;;;2.10;;
74080;SDS011;62438;52.228;6.864;2022-10-16T07:45:05;4.80;;;1.73;;
74080;SDS011;62438;52.228;6.864;2022-10-16T07:47:06;6.60;;;2.10;;
74080;SDS011;62438;52.228;6.864;2022-10-16T07:49:07;5.85;;;2.03;;
74080;SDS011;62438;52.228;6.864;2022-10-16T07:51:08;7.75;;;2.05;;
74080;SDS011;62438;52.228;6.864;2022-10-16T07:53:09;6.47;;;1.80;;
74080;SDS011;62438;52.228;6.864;2022-10-16T07:55:10;5.40;;;1.80;;
74080;SDS011;62438;52.228;6.864;2022-10-16T07:57:10;6.03;;;1.80;;
74080;SDS011;62438;52.228;6.864;2022-10-16T07:59:11;6.05;;;2.05;;
74080;SDS011;62438;52.228;6.864;2022-10-16T08:01:13;5.95;;;1.77;;
74080;SDS011;62438;52.228;6.864;2022-10-16T08:03:14;6.60;;;1.73;;
74080;SDS011;62438;52.228;6.864;2022-10-16T08:05:15;7.32;;;1.58;;
74080;SDS011;62438;52.228;6.864;2022-10-16T08:07:15;5.38;;;1.70;;
74080;SDS011;62438;52.228;6.864;2022-10-16T08:09:16;4.28;;;1.55;;
74080;SDS011;62438;52.228;6.864;2022-10-16T08:11:16;7.90;;;1.67;;
74080;SDS011;62438;52.228;6.864;2022-10-16T08:13:17;8.80;;;2.20;;
74080;SDS011;62438;52.228;6.864;2022-10-16T08:15:17;7.40;;;2.10;;
74080;SDS011;62438;52.228;6.864;2022-10-16T08:17:18;6.03;;;1.80;;
74080;SDS011;62438;52.228;6.864;2022-10-16T08:19:19;9.95;;;1.80;;
74080;SDS011;62438;52.228;6.864;2022-10-16T08:21:20;5.43;;;1.55;;
74080;SDS011;62438;52.228;6.864;2022-10-16T08:23:23;6.53;;;1.65;;
74080;SDS011;62438;52.228;6.864;2022-10-16T08:25:25;9.10;;;2.33;;
74080;SDS011;62438;52.228;6.864;2022-10-16T08:27:31;5.65;;;1.70;;
74080;SDS011;62438;52.228;6.864;2022-10-16T08:29:32;8.35;;;2.55;;
74080;SDS011;62438;52.228;6.864;2022-10-16T08:31:33;4.47;;;1.35;;
74080;SDS011;62438;52.228;6.864;2022-10-16T08:33:36;7.35;;;1.73;;
74080;SDS011;62438;52.228;6.864;2022-10-16T08:35:37;5.38;;;1.67;;
74080;SDS011;62438;52.228;6.864;2022-10-16T08:37:38;5.15;;;1.73;;
74080;SDS011;62438;52.228;6.864;2022-10-16T08:39:39;7.35;;;1.63;;
74080;SDS011;62438;52.228;6.864;2022-10-16T08:41:59;6.95;;;1.70;;
74080;SDS011;62438;52.228;6.864;2022-10-16T08:49:26;6.88;;;2.00;;
74080;SDS011;62438;52.228;6.864;2022-10-16T08:51:28;6.28;;;1.75;;
74080;SDS011;62438;52.228;6.864;2022-10-16T08:53:33;6.35;;;1.48;;
74080;SDS011;62438;52.228;6.864;2022-10-16T08:55:50;7.93;;;1.65;;
74080;SDS011;62438;52.228;6.864;2022-10-16T08:57:52;5.30;;;1.50;;
74080;SDS011;62438;52.228;6.864;2022-10-16T08:59:53;5.85;;;1.77;;
74080;SDS011;62438;52.228;6.864;2022-10-16T09:02:00;10.90;;;2.10;;
74080;SDS011;62438;52.228;6.864;2022-10-16T09:13:32;8.10;;;2.33;;
74080;SDS011;62438;52.228;6.864;2022-10-16T09:15:37;9.35;;;1.67;;
74080;SDS011;62438;52.228;6.864;2022-10-16T09:18:25;6.72;;;1.85;;
74080;SDS011;62438;52.228;6.864;2022-10-16T09:20:32;6.10;;;1.73;;
74080;SDS011;62438;52.228;6.864;2022-10-16T09:22:39;7.78;;;2.50;;
74080;SDS011;62438;52.228;6.864;2022-10-16T09:24:40;6.65;;;2.03;;
74080;SDS011;62438;52.228;6.864;2022-10-16T09:26:41;4.85;;;1.52;;
74080;SDS011;62438;52.228;6.864;2022-10-16T09:28:42;4.93;;;1.70;;
74080;SDS011;62438;52.228;6.864;2022-10-16T09:30:43;6.95;;;1.75;;
74080;SDS011;62438;52.228;6.864;2022-10-16T09:34:48;6.68;;;1.90;;
74080;SDS011;62438;52.228;6.864;2022-10-16T09:36:52;6.72;;;1.65;;
74080;SDS011;62438;52.228;6.864;2022-10-16T09:39:01;5.75;;;1.92;;
74080;SDS011;62438;52.228;6.864;2022-10-16T09:43:21;5.95;;;2.08;;
74080;SDS011;62438;52.228;6.864;2022-10-16T09:45:30;6.60;;;1.90;;
74080;SDS011;62438;52.228;6.864;2022-10-16T09:47:31;6.95;;;1.90;;
74080;SDS011;62438;52.228;6.864;2022-10-16T09:49:31;6.90;;;2.03;;
74080;SDS011;62438;52.228;6.864;2022-10-16T09:51:35;5.93;;;1.58;;
74080;SDS011;62438;52.228;6.864;2022-10-16T09:53:41;8.73;;;2.03;;
74080;SDS011;62438;52.228;6.864;2022-10-16T09:55:52;6.82;;;1.65;;
74080;SDS011;62438;52.228;6.864;2022-10-16T09:57:53;5.65;;;1.63;;
74080;SDS011;62438;52.228;6.864;2022-10-16T09:59:55;6.78;;;1.92;;
74080;SDS011;62438;52.228;6.864;2022-10-16T10:04:03;7.40;;;1.70;;
74080;SDS011;62438;52.228;6.864;2022-10-16T10:06:13;5.72;;;1.95;;
74080;SDS011;62438;52.228;6.864;2022-10-16T10:08:24;6.45;;;1.52;;
74080;SDS011;62438;52.228;6.864;2022-10-16T10:10:25;7.43;;;1.70;;
74080;SDS011;62438;52.228;6.864;2022-10-16T10:12:28;8.23;;;1.70;;
74080;SDS011;62438;52.228;6.864;2022-10-16T10:14:34;8.27;;;2.15;;
74080;SDS011;62438;52.228;6.864;2022-10-16T10:16:36;7.60;;;1.55;;
74080;SDS011;62438;52.228;6.864;2022-10-16T10:18:36;6.00;;;1.65;;
74080;SDS011;62438;52.228;6.864;2022-10-16T10:20:37;7.40;;;1.90;;
74080;SDS011;62438;52.228;6.864;2022-10-16T10:24:39;11.88;;;1.60;;
74080;SDS011;62438;52.228;6.864;2022-10-16T10:26:41;8.48;;;1.58;;
74080;SDS011;62438;52.228;6.864;2022-10-16T10:29:09;8.73;;;2.00;;
74080;SDS011;62438;52.228;6.864;2022-10-16T10:36:34;7.05;;;1.48;;
74080;SDS011;62438;52.228;6.864;2022-10-16T10:42:56;10.43;;;2.00;;
74080;SDS011;62438;52.228;6.864;2022-10-16T10:47:23;7.20;;;1.90;;
74080;SDS011;62438;52.228;6.864;2022-10-16T10:54:45;8.60;;;2.17;;
74080;SDS011;62438;52.228;6.864;2022-10-16T10:57:19;11.23;;;2.70;;
74080;SDS011;62438;52.228;6.864;2022-10-16T11:01:44;8.55;;;1.80;;
74080;SDS011;62438;52.228;6.864;2022-10-16T11:07:15;10.98;;;1.70;;
74080;SDS011;62438;52.228;6.864;2022-10-16T11:09:18;7.90;;;1.40;;
74080;SDS011;62438;52.228;6.864;2022-10-16T11:11:33;6.80;;;1.33;;
74080;SDS011;62438;52.228;6.864;2022-10-16T11:16:10;8.98;;;1.42;;
74080;SDS011;62438;52.228;6.864;2022-10-16T11:18:21;7.95;;;1.30;;
74080;SDS011;62438;52.228;6.864;2022-10-16T11:22:38;11.90;;;1.40;;
74080;SDS011;62438;52.228;6.864;2022-10-16T11:24:59;8.73;;;1.65;;
74080;SDS011;62438;52.228;6.864;2022-10-16T11:27:07;8.48;;;1.15;;
74080;SDS011;62438;52.228;6.864;2022-10-16T11:29:15;6.93;;;1.13;;
74080;SDS011;62438;52.228;6.864;2022-10-16T11:31:28;9.45;;;1.35;;
74080;SDS011;62438;52.228;6.864;2022-10-16T11:33:37;14.18;;;2.85;;
74080;SDS011;62438;52.228;6.864;2022-10-16T11:38:07;8.30;;;1.20;;
74080;SDS011;62438;52.228;6.864;2022-10-16T11:40:17;8.32;;;1.40;;
74080;SDS011;62438;52.228;6.864;2022-10-16T11:42:40;9.45;;;1.30;;
74080;SDS011;62438;52.228;6.864;2022-10-16T11:49:43;8.45;;;1.42;;
74080;SDS011;62438;52.228;6.864;2022-10-16T11:51:48;14.18;;;1.30;;
74080;SDS011;62438;52.228;6.864;2022-10-16T11:56:14;6.90;;;0.98;;
74080;SDS011;62438;52.228;6.864;2022-10-16T12:08:08;10.63;;;1.50;;
74080;SDS011;62438;52.228;6.864;2022-10-16T12:10:10;5.85;;;1.20;;
74080;SDS011;62438;52.228;6.864;2022-10-16T12:12:25;6.47;;;0.90;;
74080;SDS011;62438;52.228;6.864;2022-10-16T12:14:36;8.07;;;0.95;;
74080;SDS011;62438;52.228;6.864;2022-10-16T12:16:51;7.35;;;1.05;;
74080;SDS011;62438;52.228;6.864;2022-10-16T12:19:03;11.00;;;1.95;;
74080;SDS011;62438;52.228;6.864;2022-10-16T12:21:12;9.32;;;1.65;;
74080;SDS011;62438;52.228;6.864;2022-10-16T12:23:19;11.68;;;1.70;;
74080;SDS011;62438;52.228;6.864;2022-10-16T12:27:40;9.40;;;1.55;;
74080;SDS011;62438;52.228;6.864;2022-10-16T12:29:41;7.18;;;1.13;;
74080;SDS011;62438;52.228;6.864;2022-10-16T12:31:45;7.40;;;1.02;;
74080;SDS011;62438;52.228;6.864;2022-10-16T12:33:59;5.80;;;0.82;;
74080;SDS011;62438;52.228;6.864;2022-10-16T12:36:03;11.00;;;1.65;;
74080;SDS011;62438;52.228;6.864;2022-10-16T12:38:27;7.28;;;1.25;;
74080;SDS011;62438;52.228;6.864;2022-10-16T12:40:31;7.70;;;1.00;;
74080;SDS011;62438;52.228;6.864;2022-10-16T12:42:34;8.90;;;1.23;;
74080;SDS011;62438;52.228;6.864;2022-10-16T12:44:37;9.13;;;1.13;;
74080;SDS011;62438;52.228;6.864;2022-10-16T12:46:39;8.85;;;1.58;;
74080;SDS011;62438;52.228;6.864;2022-10-16T12:48:41;7.72;;;1.25;;
74080;SDS011;62438;52.228;6.864;2022-10-16T12:50:48;6.20;;;0.80;;
74080;SDS011;62438;52.228;6.864;2022-10-16T12:52:48;7.72;;;0.90;;
74080;SDS011;62438;52.228;6.864;2022-10-16T12:54:49;8.50;;;1.02;;
74080;SDS011;62438;52.228;6.864;2022-10-16T12:59:28;8.13;;;1.27;;
74080;SDS011;62438;52.228;6.864;2022-10-16T13:04:20;12.10;;;1.70;;
74080;SDS011;62438;52.228;6.864;2022-10-16T13:11:24;7.53;;;1.23;;
74080;SDS011;62438;52.228;6.864;2022-10-16T13:18:19;11.70;;;1.42;;
74080;SDS011;62438;52.228;6.864;2022-10-16T13:22:27;8.93;;;1.17;;
74080;SDS011;62438;52.228;6.864;2022-10-16T13:24:58;10.02;;;1.17;;
74080;SDS011;62438;52.228;6.864;2022-10-16T13:29:33;9.93;;;1.38;;
74080;SDS011;62438;52.228;6.864;2022-10-16T13:31:36;6.22;;;1.08;;
74080;SDS011;62438;52.228;6.864;2022-10-16T13:33:41;11.18;;;1.27;;
74080;SDS011;62438;52.228;6.864;2022-10-16T13:35:50;7.28;;;1.30;;
74080;SDS011;62438;52.228;6.864;2022-10-16T13:40:17;5.35;;;0.90;;
74080;SDS011;62438;52.228;6.864;2022-10-16T13:44:23;8.43;;;1.50;;
74080;SDS011;62438;52.228;6.864;2022-10-16T13:46:24;8.85;;;1.10;;
74080;SDS011;62438;52.228;6.864;2022-10-16T13:48:26;11.00;;;1.30;;
74080;SDS011;62438;52.228;6.864;2022-10-16T13:50:26;10.93;;;1.88;;
74080;SDS011;62438;52.228;6.864;2022-10-16T13:52:27;8.45;;;1.40;;
74080;SDS011;62438;52.228;6.864;2022-10-16T13:54:28;7.63;;;1.27;;
74080;SDS011;62438;52.228;6.864;2022-10-16T13:56:29;8.05;;;1.10;;
74080;SDS011;62438;52.228;6.864;2022-10-16T13:58:32;13.48;;;1.70;;
74080;SDS011;62438;52.228;6.864;2022-10-16T14:00:32;10.63;;;1.02;;
74080;SDS011;62438;52.228;6.864;2022-10-16T14:04:35;9.00;;;1.20;;
74080;SDS011;62438;52.228;6.864;2022-10-16T14:06:43;10.38;;;1.13;;
74080;SDS011;62438;52.228;6.864;2022-10-16T14:08:50;8.52;;;1.13;;
74080;SDS011;62438;52.228;6.864;2022-10-16T14:10:59;8.88;;;1.13;;
74080;SDS011;62438;52.228;6.864;2022-10-16T14:13:02;13.70;;;2.00;;
74080;SDS011;62438;52.228;6.864;2022-10-16T14:15:05;10.77;;;1.42;;
74080;SDS011;62438;52.228;6.864;2022-10-16T14:17:18;8.13;;;1.13;;
74080;SDS011;62438;52.228;6.864;2022-10-16T14:19:28;9.43;;;1.55;;
74080;SDS011;62438;52.228;6.864;2022-10-16T14:21:30;10.10;;;1.42;;
74080;SDS011;62438;52.228;6.864;2022-10-16T14:23:33;16.58;;;1.58;;
74080;SDS011;62438;52.228;6.864;2022-10-16T14:25:39;9.02;;;1.30;;
74080;SDS011;62438;52.228;6.864;2022-10-16T14:27:40;5.60;;;0.93;;